sensor_id;sensor_type;location;lat;lon;timestamp;P1;durP1;ratioP1;P2;durP2;ratioP2
44147;SDS011;29810;55.848;37.368;2022-07-29T00:02:28;3.75;;;1.83;;
44147;SDS011;29810;55.848;37.368;2022-07-29T00:05:29;4.30;;;1.90;;
44147;SDS011;29810;55.848;37.368;2022-07-29T00:08:31;2.67;;;1.90;;
44147;SDS011;29810;55.848;37.368;2022-07-29T00:11:32;4.78;;;2.10;;
44147;SDS011;29810;55.848;37.368;2022-07-29T00:14:34;4.47;;;2.08;;
44147;SDS011;29810;55.848;37.368;2022-07-29T00:17:36;4.87;;;2.20;;
44147;SDS011;29810;55.848;37.368;2022-07-29T00:20:37;4.28;;;1.90;;
44147;SDS011;29810;55.848;37.368;2022-07-29T00:23:39;2.85;;;2.10;;
44147;SDS011;29810;55.848;37.368;2022-07-29T00:26:41;6.40;;;2.20;;
44147;SDS011;29810;55.848;37.368;2022-07-29T00:29:42;3.62;;;1.95;;
44147;SDS011;29810;55.848;37.368;2022-07-29T00:32:44;3.55;;;1.75;;
44147;SDS011;29810;55.848;37.368;2022-07-29T00:35:45;4.10;;;1.90;;
44147;SDS011;29810;55.848;37.368;2022-07-29T00:38:47;4.03;;;1.87;;
44147;SDS011;29810;55.848;37.368;2022-07-29T00:41:50;3.42;;;2.00;;
44147;SDS011;29810;55.848;37.368;2022-07-29T00:44:51;5.43;;;2.20;;
44147;SDS011;29810;55.848;37.368;2022-07-29T00:47:53;3.97;;;1.90;;
44147;SDS011;29810;55.848;37.368;2022-07-29T00:50:54;4.80;;;2.42;;
44147;SDS011;29810;55.848;37.368;2022-07-29T00:53:58;6.78;;;2.35;;
44147;SDS011;29810;55.848;37.368;2022-07-29T00:57:00;2.95;;;2.05;;
44147;SDS011;29810;55.848;37.368;2022-07-29T01:00:03;5.60;;;2.05;;
44147;SDS011;29810;55.848;37.368;2022-07-29T01:03:06;5.43;;;2.20;;
44147;SDS011;29810;55.848;37.368;2022-07-29T01:06:09;4.97;;;2.12;;
44147;SDS011;29810;55.848;37.368;2022-07-29T01:09:10;4.22;;;2.20;;
44147;SDS011;29810;55.848;37.368;2022-07-29T01:12:15;3.20;;;2.12;;
44147;SDS011;29810;55.848;37.368;2022-07-29T01:15:20;5.57;;;2.20;;
44147;SDS011;29810;55.848;37.368;2022-07-29T01:18:24;3.87;;;2.20;;
44147;SDS011;29810;55.848;37.368;2022-07-29T01:21:51;3.45;;;2.20;;
44147;SDS011;29810;55.848;37.368;2022-07-29T01:32:11;5.62;;;2.20;;
44147;SDS011;29810;55.848;37.368;2022-07-29T01:35:20;4.62;;;2.22;;
44147;SDS011;29810;55.848;37.368;2022-07-29T01:38:26;4.70;;;2.45;;
44147;SDS011;29810;55.848;37.368;2022-07-29T01:41:31;6.22;;;2.40;;
44147;SDS011;29810;55.848;37.368;2022-07-29T01:44:37;7.03;;;2.62;;
44147;SDS011;29810;55.848;37.368;2022-07-29T01:51:11;5.75;;;3.80;;
44147;SDS011;29810;55.848;37.368;2022-07-29T01:57:40;9.00;;;5.32;;
44147;SDS011;29810;55.848;37.368;2022-07-29T02:00:44;7.87;;;5.47;;
44147;SDS011;29810;55.848;37.368;2022-07-29T02:03:49;6.93;;;5.40;;
44147;SDS011;29810;55.848;37.368;2022-07-29T02:06:52;5.45;;;4.25;;
44147;SDS011;29810;55.848;37.368;2022-07-29T02:09:58;5.70;;;4.37;;
44147;SDS011;29810;55.848;37.368;2022-07-29T02:13:05;5.28;;;3.00;;
44147;SDS011;29810;55.848;37.368;2022-07-29T02:16:08;4.22;;;2.92;;
44147;SDS011;29810;55.848;37.368;2022-07-29T02:19:11;6.50;;;2.72;;
44147;SDS011;29810;55.848;37.368;2022-07-29T02:22:14;4.60;;;1.73;;
44147;SDS011;29810;55.848;37.368;2022-07-29T02:25:19;4.32;;;1.62;;
44147;SDS011;29810;55.848;37.368;2022-07-29T02:28:25;9.30;;;2.12;;
44147;SDS011;29810;55.848;37.368;2022-07-29T02:31:32;6.90;;;1.70;;
44147;SDS011;29810;55.848;37.368;2022-07-29T02:34:35;4.18;;;1.60;;
44147;SDS011;29810;55.848;37.368;2022-07-29T02:37:41;4.40;;;1.80;;
44147;SDS011;29810;55.848;37.368;2022-07-29T02:40:45;3.50;;;1.80;;
44147;SDS011;29810;55.848;37.368;2022-07-29T02:43:50;3.67;;;1.75;;
44147;SDS011;29810;55.848;37.368;2022-07-29T02:47:08;5.85;;;2.00;;
44147;SDS011;29810;55.848;37.368;2022-07-29T02:50:20;5.60;;;1.80;;
44147;SDS011;29810;55.848;37.368;2022-07-29T02:53:31;6.70;;;1.70;;
44147;SDS011;29810;55.848;37.368;2022-07-29T02:56:35;3.28;;;2.10;;
44147;SDS011;29810;55.848;37.368;2022-07-29T02:59:41;4.35;;;2.25;;
44147;SDS011;29810;55.848;37.368;2022-07-29T03:02:46;4.57;;;2.00;;
44147;SDS011;29810;55.848;37.368;2022-07-29T03:05:55;5.10;;;1.83;;
44147;SDS011;29810;55.848;37.368;2022-07-29T03:08:59;3.40;;;1.55;;
44147;SDS011;29810;55.848;37.368;2022-07-29T03:12:01;7.53;;;1.42;;
44147;SDS011;29810;55.848;37.368;2022-07-29T03:15:03;4.15;;;1.50;;
44147;SDS011;29810;55.848;37.368;2022-07-29T03:18:05;4.93;;;1.52;;
44147;SDS011;29810;55.848;37.368;2022-07-29T03:21:09;4.07;;;1.58;;
44147;SDS011;29810;55.848;37.368;2022-07-29T03:24:23;3.17;;;1.52;;
44147;SDS011;29810;55.848;37.368;2022-07-29T03:27:30;3.45;;;1.40;;
44147;SDS011;29810;55.848;37.368;2022-07-29T03:30:31;4.28;;;1.40;;
44147;SDS011;29810;55.848;37.368;2022-07-29T03:33:33;2.42;;;1.40;;
44147;SDS011;29810;55.848;37.368;2022-07-29T03:36:34;5.03;;;1.50;;
44147;SDS011;29810;55.848;37.368;2022-07-29T03:39:38;4.43;;;1.52;;
44147;SDS011;29810;55.848;37.368;2022-07-29T03:42:42;4.35;;;1.50;;
44147;SDS011;29810;55.848;37.368;2022-07-29T03:45:47;3.08;;;1.40;;
44147;SDS011;29810;55.848;37.368;2022-07-29T03:51:56;4.95;;;1.60;;
44147;SDS011;29810;55.848;37.368;2022-07-29T03:54:58;3.35;;;1.30;;
44147;SDS011;29810;55.848;37.368;2022-07-29T03:58:00;5.03;;;1.50;;
44147;SDS011;29810;55.848;37.368;2022-07-29T04:01:03;3.60;;;1.45;;
44147;SDS011;29810;55.848;37.368;2022-07-29T04:04:04;4.97;;;1.52;;
44147;SDS011;29810;55.848;37.368;2022-07-29T04:07:06;5.20;;;1.33;;
44147;SDS011;29810;55.848;37.368;2022-07-29T04:10:08;4.80;;;1.37;;
44147;SDS011;29810;55.848;37.368;2022-07-29T04:13:09;2.45;;;1.50;;
44147;SDS011;29810;55.848;37.368;2022-07-29T04:16:11;5.62;;;1.30;;
44147;SDS011;29810;55.848;37.368;2022-07-29T04:19:12;3.65;;;1.50;;
44147;SDS011;29810;55.848;37.368;2022-07-29T04:22:14;2.62;;;1.25;;
44147;SDS011;29810;55.848;37.368;2022-07-29T04:25:15;2.75;;;1.20;;
44147;SDS011;29810;55.848;37.368;2022-07-29T04:28:17;3.05;;;1.30;;
44147;SDS011;29810;55.848;37.368;2022-07-29T04:31:19;2.25;;;1.20;;
44147;SDS011;29810;55.848;37.368;2022-07-29T04:34:20;3.72;;;1.30;;
44147;SDS011;29810;55.848;37.368;2022-07-29T04:37:22;4.15;;;1.62;;
44147;SDS011;29810;55.848;37.368;2022-07-29T04:40:24;5.18;;;1.60;;
44147;SDS011;29810;55.848;37.368;2022-07-29T04:43:25;4.85;;;1.70;;
44147;SDS011;29810;55.848;37.368;2022-07-29T04:46:27;5.00;;;1.50;;
44147;SDS011;29810;55.848;37.368;2022-07-29T04:49:28;3.33;;;1.40;;
44147;SDS011;29810;55.848;37.368;2022-07-29T04:52:30;3.45;;;1.30;;
44147;SDS011;29810;55.848;37.368;2022-07-29T04:55:31;2.55;;;1.33;;
44147;SDS011;29810;55.848;37.368;2022-07-29T04:58:34;2.55;;;1.10;;
44147;SDS011;29810;55.848;37.368;2022-07-29T05:01:35;3.97;;;1.48;;
44147;SDS011;29810;55.848;37.368;2022-07-29T05:04:37;3.90;;;1.70;;
44147;SDS011;29810;55.848;37.368;2022-07-29T05:07:39;2.65;;;1.30;;
44147;SDS011;29810;55.848;37.368;2022-07-29T05:10:40;3.40;;;1.40;;
44147;SDS011;29810;55.848;37.368;2022-07-29T05:13:42;1.95;;;1.20;;
44147;SDS011;29810;55.848;37.368;2022-07-29T05:16:43;4.30;;;1.48;;
44147;SDS011;29810;55.848;37.368;2022-07-29T05:19:45;7.22;;;2.97;;
44147;SDS011;29810;55.848;37.368;2022-07-29T05:22:47;4.70;;;1.30;;
44147;SDS011;29810;55.848;37.368;2022-07-29T05:25:48;2.50;;;1.33;;
44147;SDS011;29810;55.848;37.368;2022-07-29T05:28:51;4.30;;;1.40;;
44147;SDS011;29810;55.848;37.368;2022-07-29T05:31:52;5.68;;;1.30;;
44147;SDS011;29810;55.848;37.368;2022-07-29T05:34:54;6.05;;;2.12;;
44147;SDS011;29810;55.848;37.368;2022-07-29T05:37:55;4.35;;;1.55;;
44147;SDS011;29810;55.848;37.368;2022-07-29T05:40:58;4.57;;;1.73;;
44147;SDS011;29810;55.848;37.368;2022-07-29T05:44:00;4.45;;;1.50;;
44147;SDS011;29810;55.848;37.368;2022-07-29T05:47:02;2.72;;;1.40;;
44147;SDS011;29810;55.848;37.368;2022-07-29T05:50:03;3.95;;;1.80;;
44147;SDS011;29810;55.848;37.368;2022-07-29T05:53:05;2.60;;;1.35;;
44147;SDS011;29810;55.848;37.368;2022-07-29T05:56:07;2.42;;;1.70;;
44147;SDS011;29810;55.848;37.368;2022-07-29T05:59:08;4.97;;;2.12;;
44147;SDS011;29810;55.848;37.368;2022-07-29T06:02:10;4.20;;;1.67;;
44147;SDS011;29810;55.848;37.368;2022-07-29T06:05:12;2.65;;;1.27;;
44147;SDS011;29810;55.848;37.368;2022-07-29T06:08:14;4.62;;;1.40;;
44147;SDS011;29810;55.848;37.368;2022-07-29T06:11:17;4.45;;;1.45;;
44147;SDS011;29810;55.848;37.368;2022-07-29T06:14:19;2.75;;;1.40;;
44147;SDS011;29810;55.848;37.368;2022-07-29T06:17:21;3.00;;;1.35;;
44147;SDS011;29810;55.848;37.368;2022-07-29T06:20:22;3.08;;;1.55;;
44147;SDS011;29810;55.848;37.368;2022-07-29T06:23:23;2.87;;;1.40;;
44147;SDS011;29810;55.848;37.368;2022-07-29T06:26:25;3.72;;;1.33;;
44147;SDS011;29810;55.848;37.368;2022-07-29T06:29:27;4.45;;;2.58;;
44147;SDS011;29810;55.848;37.368;2022-07-29T06:32:28;2.90;;;1.42;;
44147;SDS011;29810;55.848;37.368;2022-07-29T06:35:35;2.80;;;1.40;;
44147;SDS011;29810;55.848;37.368;2022-07-29T06:38:36;3.10;;;1.08;;
44147;SDS011;29810;55.848;37.368;2022-07-29T06:41:39;3.65;;;1.95;;
44147;SDS011;29810;55.848;37.368;2022-07-29T06:44:43;4.68;;;1.40;;
44147;SDS011;29810;55.848;37.368;2022-07-29T06:47:45;4.20;;;1.62;;
44147;SDS011;29810;55.848;37.368;2022-07-29T06:50:46;5.62;;;1.75;;
44147;SDS011;29810;55.848;37.368;2022-07-29T06:53:48;3.83;;;1.35;;
44147;SDS011;29810;55.848;37.368;2022-07-29T06:56:50;2.28;;;1.35;;
44147;SDS011;29810;55.848;37.368;2022-07-29T06:59:52;3.20;;;1.62;;
44147;SDS011;29810;55.848;37.368;2022-07-29T07:02:53;4.20;;;1.40;;
44147;SDS011;29810;55.848;37.368;2022-07-29T07:05:55;4.03;;;1.40;;
44147;SDS011;29810;55.848;37.368;2022-07-29T07:08:58;2.17;;;1.30;;
44147;SDS011;29810;55.848;37.368;2022-07-29T07:12:00;3.65;;;1.40;;
44147;SDS011;29810;55.848;37.368;2022-07-29T07:15:01;3.90;;;1.60;;
44147;SDS011;29810;55.848;37.368;2022-07-29T07:18:05;2.50;;;1.10;;
44147;SDS011;29810;55.848;37.368;2022-07-29T07:21:07;4.03;;;1.30;;
44147;SDS011;29810;55.848;37.368;2022-07-29T07:24:09;2.53;;;1.20;;
44147;SDS011;29810;55.848;37.368;2022-07-29T07:27:10;4.03;;;1.12;;
44147;SDS011;29810;55.848;37.368;2022-07-29T07:30:12;3.67;;;1.30;;
44147;SDS011;29810;55.848;37.368;2022-07-29T07:33:14;3.42;;;1.20;;
44147;SDS011;29810;55.848;37.368;2022-07-29T07:36:16;2.62;;;1.10;;
44147;SDS011;29810;55.848;37.368;2022-07-29T07:39:18;2.50;;;1.20;;
44147;SDS011;29810;55.848;37.368;2022-07-29T07:42:20;3.92;;;1.37;;
44147;SDS011;29810;55.848;37.368;2022-07-29T07:45:22;2.50;;;1.25;;
44147;SDS011;29810;55.848;37.368;2022-07-29T07:48:23;2.37;;;1.20;;
44147;SDS011;29810;55.848;37.368;2022-07-29T07:51:26;2.45;;;0.90;;
44147;SDS011;29810;55.848;37.368;2022-07-29T07:54:28;5.75;;;1.20;;
44147;SDS011;29810;55.848;37.368;2022-07-29T07:57:29;1.90;;;0.98;;
44147;SDS011;29810;55.848;37.368;2022-07-29T08:00:31;2.85;;;1.25;;
44147;SDS011;29810;55.848;37.368;2022-07-29T08:03:34;2.58;;;1.15;;
44147;SDS011;29810;55.848;37.368;2022-07-29T08:06:35;3.28;;;1.30;;
44147;SDS011;29810;55.848;37.368;2022-07-29T08:09:38;4.53;;;1.30;;
44147;SDS011;29810;55.848;37.368;2022-07-29T08:12:39;6.10;;;1.40;;
44147;SDS011;29810;55.848;37.368;2022-07-29T08:15:41;2.55;;;1.25;;
44147;SDS011;29810;55.848;37.368;2022-07-29T08:18:44;4.32;;;1.30;;
44147;SDS011;29810;55.848;37.368;2022-07-29T08:21:48;3.03;;;1.10;;
44147;SDS011;29810;55.848;37.368;2022-07-29T08:24:49;4.57;;;1.33;;
44147;SDS011;29810;55.848;37.368;2022-07-29T08:27:55;2.55;;;1.30;;
44147;SDS011;29810;55.848;37.368;2022-07-29T08:30:57;3.05;;;1.15;;
44147;SDS011;29810;55.848;37.368;2022-07-29T08:33:59;1.35;;;0.90;;
44147;SDS011;29810;55.848;37.368;2022-07-29T08:37:00;3.33;;;0.90;;
44147;SDS011;29810;55.848;37.368;2022-07-29T08:40:02;2.10;;;0.90;;
44147;SDS011;29810;55.848;37.368;2022-07-29T08:43:05;2.50;;;1.12;;
44147;SDS011;29810;55.848;37.368;2022-07-29T08:46:08;2.25;;;1.02;;
44147;SDS011;29810;55.848;37.368;2022-07-29T08:49:09;2.50;;;1.30;;
44147;SDS011;29810;55.848;37.368;2022-07-29T08:52:11;2.12;;;1.10;;
44147;SDS011;29810;55.848;37.368;2022-07-29T08:55:14;3.87;;;1.00;;
44147;SDS011;29810;55.848;37.368;2022-07-29T08:58:17;4.18;;;1.30;;
44147;SDS011;29810;55.848;37.368;2022-07-29T09:01:23;4.60;;;1.20;;
44147;SDS011;29810;55.848;37.368;2022-07-29T09:04:29;2.53;;;1.00;;
44147;SDS011;29810;55.848;37.368;2022-07-29T09:07:32;2.87;;;1.27;;
44147;SDS011;29810;55.848;37.368;2022-07-29T09:10:35;2.45;;;1.05;;
44147;SDS011;29810;55.848;37.368;2022-07-29T09:13:37;2.03;;;1.08;;
44147;SDS011;29810;55.848;37.368;2022-07-29T09:16:45;4.25;;;1.10;;
44147;SDS011;29810;55.848;37.368;2022-07-29T09:20:02;2.72;;;1.10;;
44147;SDS011;29810;55.848;37.368;2022-07-29T09:23:11;2.17;;;0.85;;
44147;SDS011;29810;55.848;37.368;2022-07-29T09:26:14;3.45;;;0.90;;
44147;SDS011;29810;55.848;37.368;2022-07-29T09:29:20;3.30;;;1.30;;
44147;SDS011;29810;55.848;37.368;2022-07-29T09:32:24;3.17;;;1.08;;
44147;SDS011;29810;55.848;37.368;2022-07-29T09:35:28;1.87;;;1.10;;
44147;SDS011;29810;55.848;37.368;2022-07-29T09:38:32;2.33;;;1.02;;
44147;SDS011;29810;55.848;37.368;2022-07-29T09:41:47;3.20;;;1.45;;
44147;SDS011;29810;55.848;37.368;2022-07-29T09:44:49;3.95;;;1.10;;
44147;SDS011;29810;55.848;37.368;2022-07-29T09:47:51;3.40;;;1.17;;
44147;SDS011;29810;55.848;37.368;2022-07-29T09:50:53;4.15;;;1.10;;
44147;SDS011;29810;55.848;37.368;2022-07-29T09:53:56;5.80;;;0.95;;
44147;SDS011;29810;55.848;37.368;2022-07-29T09:56:57;2.33;;;0.93;;
44147;SDS011;29810;55.848;37.368;2022-07-29T10:03:13;2.42;;;0.90;;
44147;SDS011;29810;55.848;37.368;2022-07-29T10:06:16;1.73;;;1.00;;
44147;SDS011;29810;55.848;37.368;2022-07-29T10:09:18;2.10;;;0.90;;
44147;SDS011;29810;55.848;37.368;2022-07-29T10:12:20;2.03;;;1.12;;
44147;SDS011;29810;55.848;37.368;2022-07-29T10:15:23;3.03;;;1.00;;
44147;SDS011;29810;55.848;37.368;2022-07-29T10:18:26;2.12;;;1.00;;
44147;SDS011;29810;55.848;37.368;2022-07-29T10:21:28;2.62;;;1.05;;
44147;SDS011;29810;55.848;37.368;2022-07-29T10:24:31;6.00;;;1.40;;
44147;SDS011;29810;55.848;37.368;2022-07-29T10:27:34;3.22;;;1.10;;
44147;SDS011;29810;55.848;37.368;2022-07-29T10:30:36;4.20;;;1.12;;
44147;SDS011;29810;55.848;37.368;2022-07-29T10:36:56;5.68;;;1.20;;
44147;SDS011;29810;55.848;37.368;2022-07-29T10:40:15;5.00;;;1.08;;
44147;SDS011;29810;55.848;37.368;2022-07-29T10:43:44;1.75;;;1.05;;
44147;SDS011;29810;55.848;37.368;2022-07-29T10:46:48;2.28;;;0.93;;
44147;SDS011;29810;55.848;37.368;2022-07-29T10:50:09;3.08;;;1.00;;
44147;SDS011;29810;55.848;37.368;2022-07-29T10:53:13;2.00;;;1.00;;
44147;SDS011;29810;55.848;37.368;2022-07-29T10:59:27;3.40;;;1.10;;
44147;SDS011;29810;55.848;37.368;2022-07-29T11:05:52;1.95;;;1.10;;
44147;SDS011;29810;55.848;37.368;2022-07-29T11:09:15;3.37;;;1.37;;
44147;SDS011;29810;55.848;37.368;2022-07-29T11:15:55;2.95;;;1.10;;
44147;SDS011;29810;55.848;37.368;2022-07-29T11:19:19;2.78;;;1.20;;
44147;SDS011;29810;55.848;37.368;2022-07-29T11:22:33;4.68;;;1.30;;
44147;SDS011;29810;55.848;37.368;2022-07-29T11:25:35;3.33;;;1.17;;
44147;SDS011;29810;55.848;37.368;2022-07-29T11:31:53;1.98;;;1.20;;
44147;SDS011;29810;55.848;37.368;2022-07-29T11:35:19;2.28;;;1.40;;
44147;SDS011;29810;55.848;37.368;2022-07-29T11:38:25;3.45;;;1.05;;
44147;SDS011;29810;55.848;37.368;2022-07-29T11:41:28;3.17;;;1.20;;
44147;SDS011;29810;55.848;37.368;2022-07-29T11:48:00;2.12;;;1.20;;
44147;SDS011;29810;55.848;37.368;2022-07-29T11:51:01;2.00;;;1.10;;
44147;SDS011;29810;55.848;37.368;2022-07-29T11:54:12;2.87;;;1.40;;
44147;SDS011;29810;55.848;37.368;2022-07-29T11:57:18;1.95;;;1.08;;
44147;SDS011;29810;55.848;37.368;2022-07-29T12:00:30;2.22;;;1.10;;
44147;SDS011;29810;55.848;37.368;2022-07-29T12:03:34;3.10;;;1.20;;
44147;SDS011;29810;55.848;37.368;2022-07-29T12:06:35;4.10;;;1.40;;
44147;SDS011;29810;55.848;37.368;2022-07-29T12:09:37;3.00;;;1.10;;
44147;SDS011;29810;55.848;37.368;2022-07-29T12:12:39;2.20;;;1.10;;
44147;SDS011;29810;55.848;37.368;2022-07-29T12:15:41;4.28;;;1.75;;
44147;SDS011;29810;55.848;37.368;2022-07-29T12:18:54;3.10;;;1.40;;
44147;SDS011;29810;55.848;37.368;2022-07-29T12:21:57;3.45;;;1.17;;
44147;SDS011;29810;55.848;37.368;2022-07-29T12:25:01;4.03;;;1.20;;
44147;SDS011;29810;55.848;37.368;2022-07-29T12:28:15;2.30;;;1.00;;
44147;SDS011;29810;55.848;37.368;2022-07-29T12:31:19;2.30;;;1.08;;
44147;SDS011;29810;55.848;37.368;2022-07-29T12:34:22;3.62;;;1.20;;
44147;SDS011;29810;55.848;37.368;2022-07-29T12:37:24;6.15;;;1.30;;
44147;SDS011;29810;55.848;37.368;2022-07-29T12:40:26;4.75;;;1.27;;
44147;SDS011;29810;55.848;37.368;2022-07-29T12:43:29;3.30;;;1.10;;
44147;SDS011;29810;55.848;37.368;2022-07-29T12:46:31;3.05;;;1.10;;
44147;SDS011;29810;55.848;37.368;2022-07-29T12:49:32;1.70;;;0.90;;
44147;SDS011;29810;55.848;37.368;2022-07-29T12:52:34;2.87;;;1.05;;
44147;SDS011;29810;55.848;37.368;2022-07-29T12:55:54;2.15;;;1.00;;
44147;SDS011;29810;55.848;37.368;2022-07-29T12:58:57;1.75;;;0.80;;
44147;SDS011;29810;55.848;37.368;2022-07-29T13:01:58;3.47;;;1.37;;
44147;SDS011;29810;55.848;37.368;2022-07-29T13:05:01;2.95;;;0.90;;
44147;SDS011;29810;55.848;37.368;2022-07-29T13:08:11;2.75;;;1.00;;
44147;SDS011;29810;55.848;37.368;2022-07-29T13:14:39;1.42;;;0.90;;
44147;SDS011;29810;55.848;37.368;2022-07-29T13:17:42;1.95;;;1.10;;
44147;SDS011;29810;55.848;37.368;2022-07-29T13:20:44;1.37;;;1.00;;
44147;SDS011;29810;55.848;37.368;2022-07-29T13:23:46;3.17;;;1.30;;
44147;SDS011;29810;55.848;37.368;2022-07-29T13:26:47;1.75;;;1.08;;
44147;SDS011;29810;55.848;37.368;2022-07-29T13:29:49;2.28;;;1.05;;
44147;SDS011;29810;55.848;37.368;2022-07-29T13:32:53;1.98;;;0.90;;
44147;SDS011;29810;55.848;37.368;2022-07-29T13:35:56;3.25;;;1.20;;
44147;SDS011;29810;55.848;37.368;2022-07-29T13:38:57;2.67;;;1.00;;
44147;SDS011;29810;55.848;37.368;2022-07-29T13:41:59;2.65;;;1.27;;
44147;SDS011;29810;55.848;37.368;2022-07-29T13:45:00;3.95;;;1.37;;
44147;SDS011;29810;55.848;37.368;2022-07-29T13:48:05;2.33;;;1.15;;
44147;SDS011;29810;55.848;37.368;2022-07-29T13:51:07;2.30;;;1.37;;
44147;SDS011;29810;55.848;37.368;2022-07-29T13:54:08;2.62;;;1.35;;
44147;SDS011;29810;55.848;37.368;2022-07-29T13:57:10;2.08;;;1.10;;
44147;SDS011;29810;55.848;37.368;2022-07-29T14:00:13;2.78;;;1.08;;
44147;SDS011;29810;55.848;37.368;2022-07-29T14:03:16;2.08;;;1.00;;
44147;SDS011;29810;55.848;37.368;2022-07-29T14:06:17;2.80;;;1.20;;
44147;SDS011;29810;55.848;37.368;2022-07-29T14:09:20;2.65;;;1.10;;
44147;SDS011;29810;55.848;37.368;2022-07-29T14:12:23;1.90;;;1.20;;
44147;SDS011;29810;55.848;37.368;2022-07-29T14:15:24;3.33;;;1.33;;
44147;SDS011;29810;55.848;37.368;2022-07-29T14:18:26;2.83;;;1.20;;
44147;SDS011;29810;55.848;37.368;2022-07-29T14:21:28;2.78;;;1.20;;
44147;SDS011;29810;55.848;37.368;2022-07-29T14:24:32;3.72;;;1.65;;
44147;SDS011;29810;55.848;37.368;2022-07-29T14:27:34;3.47;;;1.48;;
44147;SDS011;29810;55.848;37.368;2022-07-29T14:30:35;2.78;;;1.40;;
44147;SDS011;29810;55.848;37.368;2022-07-29T14:33:37;4.53;;;1.92;;
44147;SDS011;29810;55.848;37.368;2022-07-29T14:36:38;6.28;;;2.97;;
44147;SDS011;29810;55.848;37.368;2022-07-29T14:39:40;3.12;;;1.20;;
44147;SDS011;29810;55.848;37.368;2022-07-29T14:42:42;3.17;;;1.50;;
44147;SDS011;29810;55.848;37.368;2022-07-29T14:45:44;1.98;;;1.17;;
44147;SDS011;29810;55.848;37.368;2022-07-29T14:48:45;7.85;;;1.40;;
44147;SDS011;29810;55.848;37.368;2022-07-29T14:51:47;2.90;;;1.50;;
44147;SDS011;29810;55.848;37.368;2022-07-29T14:54:48;3.45;;;1.58;;
44147;SDS011;29810;55.848;37.368;2022-07-29T14:57:50;2.87;;;1.55;;
44147;SDS011;29810;55.848;37.368;2022-07-29T15:00:51;3.28;;;1.30;;
44147;SDS011;29810;55.848;37.368;2022-07-29T15:03:53;3.60;;;2.05;;
44147;SDS011;29810;55.848;37.368;2022-07-29T15:06:55;3.45;;;1.42;;
44147;SDS011;29810;55.848;37.368;2022-07-29T15:09:56;2.90;;;1.48;;
44147;SDS011;29810;55.848;37.368;2022-07-29T15:12:58;3.40;;;1.70;;
44147;SDS011;29810;55.848;37.368;2022-07-29T15:16:00;6.37;;;1.50;;
44147;SDS011;29810;55.848;37.368;2022-07-29T15:19:02;5.10;;;1.33;;
44147;SDS011;29810;55.848;37.368;2022-07-29T15:22:04;3.70;;;1.50;;
44147;SDS011;29810;55.848;37.368;2022-07-29T15:25:06;4.37;;;1.25;;
44147;SDS011;29810;55.848;37.368;2022-07-29T15:28:09;2.50;;;1.30;;
44147;SDS011;29810;55.848;37.368;2022-07-29T15:31:12;4.28;;;1.42;;
44147;SDS011;29810;55.848;37.368;2022-07-29T15:34:14;4.82;;;1.12;;
44147;SDS011;29810;55.848;37.368;2022-07-29T15:37:16;3.53;;;1.25;;
44147;SDS011;29810;55.848;37.368;2022-07-29T15:40:17;4.12;;;1.45;;
44147;SDS011;29810;55.848;37.368;2022-07-29T15:43:19;3.28;;;1.30;;
44147;SDS011;29810;55.848;37.368;2022-07-29T15:46:21;2.40;;;1.42;;
44147;SDS011;29810;55.848;37.368;2022-07-29T15:49:40;4.43;;;1.25;;
44147;SDS011;29810;55.848;37.368;2022-07-29T15:52:43;5.05;;;1.52;;
44147;SDS011;29810;55.848;37.368;2022-07-29T15:55:44;3.50;;;1.42;;
44147;SDS011;29810;55.848;37.368;2022-07-29T15:58:46;4.22;;;1.70;;
44147;SDS011;29810;55.848;37.368;2022-07-29T16:01:47;4.00;;;1.50;;
44147;SDS011;29810;55.848;37.368;2022-07-29T16:04:49;5.68;;;1.30;;
44147;SDS011;29810;55.848;37.368;2022-07-29T16:07:51;5.70;;;1.70;;
44147;SDS011;29810;55.848;37.368;2022-07-29T16:10:53;5.37;;;1.80;;
44147;SDS011;29810;55.848;37.368;2022-07-29T16:13:54;3.55;;;1.75;;
44147;SDS011;29810;55.848;37.368;2022-07-29T16:16:56;3.90;;;1.50;;
44147;SDS011;29810;55.848;37.368;2022-07-29T16:19:58;4.10;;;1.60;;
44147;SDS011;29810;55.848;37.368;2022-07-29T16:22:59;6.28;;;1.70;;
44147;SDS011;29810;55.848;37.368;2022-07-29T16:26:01;4.05;;;1.80;;
44147;SDS011;29810;55.848;37.368;2022-07-29T16:29:03;5.22;;;1.80;;
44147;SDS011;29810;55.848;37.368;2022-07-29T16:32:05;3.08;;;1.20;;
44147;SDS011;29810;55.848;37.368;2022-07-29T16:35:07;5.40;;;1.92;;
44147;SDS011;29810;55.848;37.368;2022-07-29T16:38:09;3.95;;;1.80;;
44147;SDS011;29810;55.848;37.368;2022-07-29T16:41:11;4.30;;;1.90;;
44147;SDS011;29810;55.848;37.368;2022-07-29T16:44:16;3.47;;;1.60;;
44147;SDS011;29810;55.848;37.368;2022-07-29T16:47:22;2.62;;;1.40;;
44147;SDS011;29810;55.848;37.368;2022-07-29T16:50:23;4.70;;;1.77;;
44147;SDS011;29810;55.848;37.368;2022-07-29T16:53:26;4.65;;;1.70;;
44147;SDS011;29810;55.848;37.368;2022-07-29T16:56:27;6.32;;;1.70;;
44147;SDS011;29810;55.848;37.368;2022-07-29T16:59:29;5.15;;;1.73;;
44147;SDS011;29810;55.848;37.368;2022-07-29T17:02:30;9.27;;;2.35;;
44147;SDS011;29810;55.848;37.368;2022-07-29T17:05:32;3.83;;;1.40;;
44147;SDS011;29810;55.848;37.368;2022-07-29T17:08:35;3.80;;;1.55;;
44147;SDS011;29810;55.848;37.368;2022-07-29T17:11:37;5.55;;;1.75;;
44147;SDS011;29810;55.848;37.368;2022-07-29T17:14:39;4.12;;;1.80;;
44147;SDS011;29810;55.848;37.368;2022-07-29T17:17:41;3.97;;;1.80;;
44147;SDS011;29810;55.848;37.368;2022-07-29T17:20:42;2.87;;;1.90;;
44147;SDS011;29810;55.848;37.368;2022-07-29T17:23:47;4.47;;;1.87;;
44147;SDS011;29810;55.848;37.368;2022-07-29T17:26:50;6.35;;;2.78;;
44147;SDS011;29810;55.848;37.368;2022-07-29T17:29:52;5.78;;;2.80;;
44147;SDS011;29810;55.848;37.368;2022-07-29T17:32:54;4.57;;;2.70;;
44147;SDS011;29810;55.848;37.368;2022-07-29T17:35:56;4.72;;;2.40;;
44147;SDS011;29810;55.848;37.368;2022-07-29T17:39:16;4.00;;;1.90;;
44147;SDS011;29810;55.848;37.368;2022-07-29T17:42:17;7.72;;;1.90;;
44147;SDS011;29810;55.848;37.368;2022-07-29T17:45:19;5.55;;;1.95;;
44147;SDS011;29810;55.848;37.368;2022-07-29T17:48:22;4.62;;;2.30;;
44147;SDS011;29810;55.848;37.368;2022-07-29T17:51:23;2.83;;;1.80;;
44147;SDS011;29810;55.848;37.368;2022-07-29T17:54:27;5.20;;;2.12;;
44147;SDS011;29810;55.848;37.368;2022-07-29T17:57:28;4.28;;;2.20;;
44147;SDS011;29810;55.848;37.368;2022-07-29T18:00:30;6.03;;;2.30;;
44147;SDS011;29810;55.848;37.368;2022-07-29T18:03:32;6.15;;;2.10;;
44147;SDS011;29810;55.848;37.368;2022-07-29T18:06:33;5.65;;;2.20;;
44147;SDS011;29810;55.848;37.368;2022-07-29T18:09:36;3.90;;;2.45;;
44147;SDS011;29810;55.848;37.368;2022-07-29T18:12:37;4.37;;;2.22;;
44147;SDS011;29810;55.848;37.368;2022-07-29T18:15:39;3.37;;;1.95;;
44147;SDS011;29810;55.848;37.368;2022-07-29T18:18:42;3.97;;;2.42;;
44147;SDS011;29810;55.848;37.368;2022-07-29T18:21:44;2.85;;;1.80;;
44147;SDS011;29810;55.848;37.368;2022-07-29T18:24:45;2.65;;;1.80;;
44147;SDS011;29810;55.848;37.368;2022-07-29T18:27:49;5.22;;;2.40;;
44147;SDS011;29810;55.848;37.368;2022-07-29T18:30:50;3.85;;;1.87;;
44147;SDS011;29810;55.848;37.368;2022-07-29T18:33:52;6.57;;;2.22;;
44147;SDS011;29810;55.848;37.368;2022-07-29T18:36:54;3.65;;;2.00;;
44147;SDS011;29810;55.848;37.368;2022-07-29T18:39:55;3.50;;;2.12;;
44147;SDS011;29810;55.848;37.368;2022-07-29T18:42:57;5.80;;;2.22;;
44147;SDS011;29810;55.848;37.368;2022-07-29T18:45:59;4.93;;;2.47;;
44147;SDS011;29810;55.848;37.368;2022-07-29T18:49:00;6.05;;;2.72;;
44147;SDS011;29810;55.848;37.368;2022-07-29T18:52:09;6.90;;;2.40;;